Time;durP1;ratioP1;P1;durP2;ratioP2;P2;SDS_P1;SDS_P2;PMS_P1;PMS_P2;Temp;Humidity;BMP_temperature;BMP_pressure;BME280_temperature;BME280_humidity;BME280_pressure;Samples;Min_cycle;Max_cycle;Signal;HPM_P1;HPM_P2
2023/11/04 00:00:22;;;;;;;13.18;10.43;;;;;;;3.44;100.00;94176.38;5088857;28;20032;-67
2023/11/04 00:02:47;;;;;;;10.90;9.80;;;;;;;3.41;100.00;94178.41;5086463;28;20023;-67
2023/11/04 00:05:13;;;;;;;22.42;15.25;;;;;;;3.40;100.00;94169.78;5082390;28;20032;-66
2023/11/04 00:07:38;;;;;;;21.85;17.30;;;;;;;3.39;100.00;94172.53;5086192;28;20027;-67
2023/11/04 00:10:05;;;;;;;25.90;19.60;;;;;;;3.38;100.00;94170.91;5088746;28;20049;-66
2023/11/04 00:12:31;;;;;;;23.70;19.48;;;;;;;3.34;100.00;94179.94;5083136;28;20782;-66
2023/11/04 00:14:57;;;;;;;17.95;14.93;;;;;;;3.28;100.00;94179.50;5094225;28;20024;-66
2023/11/04 00:17:22;;;;;;;20.95;13.38;;;;;;;3.29;100.00;94178.53;5086284;28;20058;-66
2023/11/04 00:19:48;;;;;;;19.00;17.00;;;;;;;3.32;100.00;94176.66;5082287;28;20400;-66
2023/11/04 00:22:14;;;;;;;32.63;26.85;;;;;;;3.32;100.00;94182.66;5086591;28;20032;-66
2023/11/04 00:24:39;;;;;;;18.55;16.63;;;;;;;3.26;100.00;94180.59;5088251;28;20025;-66
2023/11/04 00:27:05;;;;;;;16.80;15.02;;;;;;;3.19;100.00;94169.91;5086963;28;20073;-66
2023/11/04 00:29:30;;;;;;;13.90;12.60;;;;;;;3.11;100.00;94172.38;5090664;28;20051;-66
2023/11/04 00:31:57;;;;;;;9.43;8.73;;;;;;;3.05;100.00;94176.31;5087471;28;20020;-66
2023/11/04 00:34:23;;;;;;;4.60;4.25;;;;;;;3.00;100.00;94171.50;5080702;28;20028;-66
2023/11/04 00:36:48;;;;;;;3.90;2.83;;;;;;;2.99;100.00;94167.25;5083220;28;20099;-66
2023/11/04 00:39:14;;;;;;;2.88;2.67;;;;;;;2.98;100.00;94165.63;5085981;28;20033;-66
2023/11/04 00:41:39;;;;;;;2.75;2.58;;;;;;;2.97;100.00;94161.38;5089175;28;20044;-66
2023/11/04 00:44:05;;;;;;;5.32;2.90;;;;;;;2.99;100.00;94164.66;5096277;28;20519;-66
2023/11/04 00:46:31;;;;;;;12.00;6.82;;;;;;;2.97;100.00;94166.56;5097937;28;20033;-66
2023/11/04 00:48:58;;;;;;;13.55;9.95;;;;;;;3.00;100.00;94157.69;5087565;28;20016;-66
2023/11/04 00:51:23;;;;;;;16.92;11.85;;;;;;;3.05;100.00;94173.72;5088462;28;20448;-66
2023/11/04 00:53:49;;;;;;;14.80;11.38;;;;;;;3.05;100.00;94173.72;5083137;28;20107;-66
2023/11/04 00:56:14;;;;;;;13.40;9.98;;;;;;;3.03;100.00;94166.97;5087264;28;20110;-66
2023/11/04 00:58:39;;;;;;;12.85;9.30;;;;;;;2.99;100.00;94179.44;5087213;28;20027;-66
2023/11/04 01:01:07;;;;;;;12.57;8.48;;;;;;;2.99;100.00;94172.47;5083999;28;20484;-65
2023/11/04 01:03:33;;;;;;;8.75;7.05;;;;;;;3.08;100.00;94170.84;5083575;28;20115;-66
2023/11/04 01:05:58;;;;;;;14.88;11.90;;;;;;;3.18;100.00;94180.44;5090371;28;20103;-65
2023/11/04 01:08:24;;;;;;;18.25;13.02;;;;;;;3.14;100.00;94185.09;5087361;28;20052;-66
2023/11/04 01:10:49;;;;;;;20.23;13.95;;;;;;;3.08;100.00;94177.81;5084437;28;20466;-66
2023/11/04 01:13:15;;;;;;;12.10;10.82;;;;;;;3.10;100.00;94174.13;5084486;28;20035;-66
2023/11/04 01:15:40;;;;;;;14.75;11.68;;;;;;;3.06;100.00;94172.75;5082739;28;20028;-66
2023/11/04 01:18:06;;;;;;;23.67;15.98;;;;;;;3.15;100.00;94168.53;5087116;28;20032;-66
2023/11/04 01:20:31;;;;;;;20.17;14.45;;;;;;;3.07;100.00;94177.00;5084759;28;20173;-66
2023/11/04 01:22:57;;;;;;;32.20;24.88;;;;;;;3.06;100.00;94177.97;5085213;28;20028;-66
2023/11/04 01:25:22;;;;;;;39.38;28.67;;;;;;;3.06;100.00;94180.56;5083303;28;20023;-66
2023/11/04 01:27:48;;;;;;;56.03;38.53;;;;;;;3.08;100.00;94176.03;5079950;28;20101;-66
2023/11/04 01:30:13;;;;;;;38.67;27.30;;;;;;;3.07;100.00;94178.75;5081110;28;20027;-66
2023/11/04 01:32:39;;;;;;;22.10;16.73;;;;;;;3.02;100.00;94176.59;5080376;28;20088;-66
2023/11/04 01:35:07;;;;;;;18.45;12.07;;;;;;;3.04;100.00;94181.63;5082354;28;20111;-66
2023/11/04 01:37:32;;;;;;;8.80;7.93;;;;;;;3.06;100.00;94174.50;5083198;28;20028;-66
2023/11/04 01:39:58;;;;;;;26.92;8.40;;;;;;;3.05;100.00;94184.13;5088713;28;20035;-66
2023/11/04 01:42:23;;;;;;;23.33;14.50;;;;;;;3.02;100.00;94176.59;5078994;28;20113;-66
2023/11/04 01:44:49;;;;;;;23.45;15.80;;;;;;;3.03;100.00;94182.59;5084196;28;20079;-66
2023/11/04 01:47:15;;;;;;;31.92;15.60;;;;;;;2.97;100.00;94179.56;5085365;28;20465;-66
2023/11/04 01:49:41;;;;;;;20.25;15.13;;;;;;;2.95;100.00;94171.09;5087686;28;20050;-66
2023/11/04 01:52:06;;;;;;;17.95;14.77;;;;;;;2.94;100.00;94163.41;5084862;28;20028;-66
2023/11/04 01:54:34;;;;;;;56.72;12.68;;;;;;;2.99;100.00;94164.66;5086233;28;20024;-66
2023/11/04 01:57:00;;;;;;;33.65;12.85;;;;;;;2.93;100.00;94164.34;5079826;28;20029;-66
2023/11/04 01:59:27;;;;;;;27.63;20.67;;;;;;;2.88;100.00;94145.75;5092395;28;20032;-66
2023/11/04 02:01:53;;;;;;;42.10;17.30;;;;;;;2.89;100.00;94152.59;5086698;28;20512;-66
2023/11/04 02:04:18;;;;;;;72.68;27.38;;;;;;;2.89;100.00;94144.78;5080976;28;20369;-66
2023/11/04 02:06:44;;;;;;;56.15;17.92;;;;;;;2.87;100.00;94139.72;5091778;28;20532;-66
2023/11/04 02:09:11;;;;;;;47.80;15.38;;;;;;;2.83;100.00;94122.75;5087257;28;20023;-66
2023/11/04 02:11:36;;;;;;;70.07;13.88;;;;;;;2.78;100.00;94119.72;5080753;28;20021;-66
2023/11/04 02:14:02;;;;;;;27.52;10.35;;;;;;;2.75;100.00;94122.59;5085411;28;20043;-66
2023/11/04 02:16:27;;;;;;;40.88;9.70;;;;;;;2.73;100.00;94120.13;5088283;28;20016;-66
2023/11/04 02:18:52;;;;;;;11.07;9.18;;;;;;;2.72;100.00;94124.50;5093894;28;20027;-66
2023/11/04 02:21:18;;;;;;;25.98;12.60;;;;;;;2.78;100.00;94128.34;5084752;28;20024;-66
2023/11/04 02:23:43;;;;;;;26.55;13.68;;;;;;;2.81;100.00;94115.09;5087084;28;20629;-66
2023/11/04 02:26:09;;;;;;;33.00;14.68;;;;;;;2.81;100.00;94112.50;5088899;28;20081;-66
2023/11/04 02:28:34;;;;;;;21.05;13.77;;;;;;;2.80;100.00;94120.41;5100277;28;20625;-66
2023/11/04 02:31:00;;;;;;;65.35;13.23;;;;;;;2.85;100.00;94118.22;5085398;28;20024;-66
2023/11/04 02:33:25;;;;;;;18.55;11.60;;;;;;;2.85;100.00;94107.81;5085546;28;20107;-66
2023/11/04 02:35:51;;;;;;;20.88;9.90;;;;;;;2.87;100.00;94111.13;5096676;28;20024;-66
2023/11/04 02:38:17;;;;;;;42.10;17.20;;;;;;;2.89;100.00;94108.41;5084776;28;20025;-66
2023/11/04 02:40:42;;;;;;;44.35;20.20;;;;;;;2.89;100.00;94109.22;5079103;28;20050;-66
2023/11/04 02:43:08;;;;;;;96.47;15.43;;;;;;;2.91;100.00;94104.72;5084553;28;20043;-66
2023/11/04 02:45:34;;;;;;;29.83;15.63;;;;;;;2.92;100.00;94095.13;5086799;28;20025;-66
2023/11/04 02:48:00;;;;;;;30.55;13.48;;;;;;;2.92;100.00;94103.75;5091530;28;20024;-66
2023/11/04 02:50:26;;;;;;;19.63;12.65;;;;;;;2.92;100.00;94106.34;5095062;28;20024;-66
2023/11/04 02:52:51;;;;;;;13.40;10.73;;;;;;;2.91;100.00;94114.28;5092118;28;20413;-66
2023/11/04 02:55:17;;;;;;;34.00;19.33;;;;;;;2.85;100.00;94107.81;5087381;28;20036;-66
2023/11/04 02:57:42;;;;;;;23.23;11.80;;;;;;;2.86;100.00;94105.09;5103361;28;20024;-66
2023/11/04 03:00:09;;;;;;;14.82;12.10;;;;;;;2.85;100.00;94106.06;5088012;28;20034;-66
2023/11/04 03:02:35;;;;;;;42.45;8.10;;;;;;;2.82;100.00;94108.09;5084454;28;20043;-66
2023/11/04 03:05:00;;;;;;;9.90;7.05;;;;;;;2.77;100.00;94105.09;5083044;28;20066;-66
2023/11/04 03:07:26;;;;;;;5.45;4.95;;;;;;;2.84;100.00;94104.44;5091443;28;20024;-66
2023/11/04 03:09:51;;;;;;;7.97;7.28;;;;;;;2.79;100.00;94101.41;5087509;28;20051;-66
2023/11/04 03:12:16;;;;;;;24.35;13.82;;;;;;;2.80;100.00;94094.41;5087814;28;20115;-66
2023/11/04 03:14:46;;;;;;;25.42;20.40;;;;;;;2.82;100.00;94080.34;5083747;28;20032;-66
2023/11/04 03:17:11;;;;;;;6.47;5.88;;;;;;;2.89;100.00;94082.41;5094676;28;20514;-66
2023/11/04 03:19:37;;;;;;;6.75;6.22;;;;;;;2.93;100.00;94063.81;5089020;28;20078;-66
2023/11/04 03:22:02;;;;;;;7.70;7.05;;;;;;;2.93;100.00;94057.78;5089684;28;20039;-66
2023/11/04 03:24:28;;;;;;;8.57;7.68;;;;;;;2.94;100.00;94062.00;5089447;28;20031;-67
2023/11/04 03:26:53;;;;;;;13.90;12.48;;;;;;;2.93;100.00;94052.56;5086536;28;20089;-66
2023/11/04 03:29:19;;;;;;;6.65;6.05;;;;;;;2.94;100.00;94039.44;5090433;28;20492;-66
2023/11/04 03:31:44;;;;;;;5.65;5.10;;;;;;;2.97;100.00;94044.38;5085432;28;20024;-66
2023/11/04 03:34:09;;;;;;;9.43;5.15;;;;;;;2.93;100.00;94053.41;5091482;28;20459;-66
2023/11/04 03:36:35;;;;;;;5.72;5.30;;;;;;;2.93;100.00;94050.81;5082895;28;20028;-66
2023/11/04 03:39:01;;;;;;;7.75;5.80;;;;;;;2.93;100.00;94055.16;5091603;28;20021;-66
2023/11/04 03:41:26;;;;;;;5.70;5.20;;;;;;;3.19;100.00;94059.84;5089143;28;20027;-67
2023/11/04 03:43:51;;;;;;;4.90;4.50;;;;;;;3.31;100.00;94053.53;5076200;28;20063;-66
2023/11/04 03:46:17;;;;;;;7.03;4.53;;;;;;;3.08;100.00;94045.19;5084071;28;20507;-66
2023/11/04 03:48:43;;;;;;;6.95;5.57;;;;;;;3.13;100.00;94040.41;5081836;28;20021;-66
2023/11/04 03:51:08;;;;;;;13.85;8.38;;;;;;;3.18;100.00;94048.63;5081148;28;20021;-66
2023/11/04 03:53:34;;;;;;;15.60;8.48;;;;;;;3.04;100.00;94059.41;5089184;28;20024;-66
2023/11/04 03:56:01;;;;;;;10.50;8.95;;;;;;;3.03;100.00;94058.63;5091340;28;20032;-66
2023/11/04 03:58:26;;;;;;;13.38;11.10;;;;;;;2.98;100.00;94071.19;5087274;28;20099;-66
2023/11/04 04:00:52;;;;;;;10.45;9.45;;;;;;;2.99;100.00;94057.25;5086424;28;20112;-66
2023/11/04 04:03:17;;;;;;;12.50;11.25;;;;;;;3.03;100.00;94053.41;5093802;28;20473;-66
2023/11/04 04:05:43;;;;;;;19.00;16.73;;;;;;;3.03;100.00;94036.97;5083678;28;20370;-66
2023/11/04 04:08:08;;;;;;;15.18;13.68;;;;;;;3.00;100.00;94025.09;5095035;28;20641;-66
2023/11/04 04:10:34;;;;;;;12.80;11.30;;;;;;;3.01;100.00;94017.13;5087727;28;20128;-66
2023/11/04 04:12:59;;;;;;;11.13;9.63;;;;;;;3.06;100.00;94008.94;5088917;28;20028;-66
2023/11/04 04:15:24;;;;;;;11.38;9.45;;;;;;;3.11;100.00;93996.34;5095263;28;20051;-66
2023/11/04 04:17:50;;;;;;;11.32;9.80;;;;;;;3.06;100.00;93989.91;5087591;28;20059;-66
2023/11/04 04:20:21;;;;;;;12.88;11.43;;;;;;;3.04;100.00;93984.84;5085155;28;20062;-66
2023/11/04 04:22:46;;;;;;;22.40;20.17;;;;;;;3.02;100.00;93976.38;5094492;28;20547;-66
2023/11/04 04:25:12;;;;;;;14.65;13.15;;;;;;;3.00;100.00;93973.09;5085629;28;20060;-66
2023/11/04 04:27:37;;;;;;;11.35;10.35;;;;;;;3.00;100.00;93973.91;5082937;28;20091;-66
2023/11/04 04:30:04;;;;;;;10.32;9.43;;;;;;;2.97;100.00;93970.75;5079624;28;20032;-66
2023/11/04 04:32:30;;;;;;;10.95;9.85;;;;;;;2.95;100.00;93968.28;5085149;28;20021;-66
2023/11/04 04:34:55;;;;;;;10.10;9.25;;;;;;;2.88;100.00;93963.78;5089759;28;20080;-66
2023/11/04 04:37:21;;;;;;;10.63;9.57;;;;;;;2.81;100.00;93959.13;5084905;28;20305;-67
2023/11/04 04:39:46;;;;;;;9.98;9.07;;;;;;;2.79;100.00;93942.88;5079110;28;20060;-66
2023/11/04 04:42:12;;;;;;;10.23;9.38;;;;;;;2.71;100.00;93932.31;5087593;28;20031;-66
2023/11/04 04:44:37;;;;;;;10.27;9.25;;;;;;;2.68;100.00;93927.41;5089182;28;20020;-67
2023/11/04 04:47:03;;;;;;;13.43;11.05;;;;;;;2.68;100.00;93922.19;5089059;28;20024;-66
2023/11/04 04:49:28;;;;;;;49.00;38.22;;;;;;;2.71;100.00;93925.34;5087219;28;20023;-66
2023/11/04 04:51:54;;;;;;;25.60;19.25;;;;;;;2.72;100.00;93915.75;5080371;28;20058;-66
2023/11/04 04:54:19;;;;;;;8.18;7.38;;;;;;;2.70;100.00;93913.31;5082822;28;20086;-67
2023/11/04 04:56:46;;;;;;;7.30;3.78;;;;;;;2.65;100.00;93893.91;5078063;28;20036;-67
2023/11/04 04:59:12;;;;;;;3.67;3.47;;;;;;;2.61;100.00;93887.34;5083185;28;20053;-66
2023/11/04 05:01:37;;;;;;;3.28;3.08;;;;;;;2.51;100.00;93901.13;5087974;28;20464;-66
2023/11/04 05:04:03;;;;;;;3.20;3.00;;;;;;;2.51;100.00;93903.72;5085653;28;20041;-67
2023/11/04 05:06:29;;;;;;;3.30;3.10;;;;;;;2.50;100.00;93912.47;5086206;28;20420;-66
2023/11/04 05:08:55;;;;;;;4.00;3.70;;;;;;;2.49;100.00;93910.84;5079228;28;20055;-66
2023/11/04 05:11:21;;;;;;;6.20;5.70;;;;;;;2.48;100.00;93908.41;5086565;28;20044;-66
2023/11/04 05:13:46;;;;;;;5.38;4.13;;;;;;;2.40;100.00;93899.50;5087415;28;20111;-66
2023/11/04 05:16:12;;;;;;;5.00;4.60;;;;;;;2.33;100.00;93897.59;5083504;28;20031;-67
2023/11/04 05:18:37;;;;;;;9.73;8.82;;;;;;;2.32;100.00;93895.94;5082712;28;20043;-66
2023/11/04 05:21:03;;;;;;;7.68;6.38;;;;;;;2.31;100.00;93894.28;5084992;28;20028;-66
2023/11/04 05:23:31;;;;;;;14.85;13.07;;;;;;;2.28;100.00;93888.41;5082112;28;20020;-67
2023/11/04 05:26:00;;;;;;;35.42;31.90;;;;;;;2.31;100.00;93868.31;5079088;28;20035;-66
2023/11/04 05:28:26;;;;;;;21.23;19.00;;;;;;;2.42;100.00;93850.00;5084084;28;20035;-67
2023/11/04 05:30:52;;;;;;;4.10;3.83;;;;;;;2.42;100.00;93842.22;5093393;28;20495;-66
2023/11/04 05:33:17;;;;;;;3.60;3.40;;;;;;;2.46;100.00;93835.78;5091367;28;20024;-67
2023/11/04 05:35:44;;;;;;;3.20;3.10;;;;;;;2.41;100.00;93845.78;5086066;28;20110;-67
2023/11/04 05:38:09;;;;;;;3.00;2.90;;;;;;;2.45;100.00;93854.94;5083275;28;20032;-66
2023/11/04 05:40:35;;;;;;;5.07;4.68;;;;;;;2.45;100.00;93852.34;5079317;28;20034;-66
2023/11/04 05:43:01;;;;;;;5.20;4.80;;;;;;;2.50;100.00;93859.72;5089846;28;20059;-66
2023/11/04 05:45:27;;;;;;;5.78;5.20;;;;;;;2.53;100.00;93855.06;5088902;28;20028;-66
2023/11/04 05:47:52;;;;;;;5.10;4.72;;;;;;;2.54;100.00;93846.31;5094074;28;20460;-65
2023/11/04 05:50:18;;;;;;;4.18;3.88;;;;;;;2.54;100.00;93832.50;5090207;28;20055;-66
2023/11/04 05:52:44;;;;;;;4.15;3.85;;;;;;;2.52;100.00;93824.84;5086632;28;20050;-67
2023/11/04 05:55:13;;;;;;;3.22;2.90;;;;;;;2.52;100.00;93827.44;5086916;28;20039;-66
2023/11/04 05:57:39;;;;;;;6.50;4.55;;;;;;;2.51;100.00;93807.59;5090176;28;20051;-66
2023/11/04 06:00:11;;;;;;;6.93;6.32;;;;;;;2.51;100.00;93805.00;5090893;28;20024;-66
2023/11/04 06:02:43;;;;;;;3.10;2.97;;;;;;;2.50;100.00;93803.38;5082000;28;20473;-66
2023/11/04 06:05:10;;;;;;;2.83;2.72;;;;;;;2.58;100.00;93795.72;5089220;28;20118;-67
2023/11/04 06:07:36;;;;;;;3.75;3.45;;;;;;;2.56;100.00;93789.84;5088438;28;20020;-66
2023/11/04 06:10:03;;;;;;;4.60;3.80;;;;;;;2.56;100.00;93794.22;5087958;28;20048;-66
2023/11/04 06:12:28;;;;;;;3.97;3.67;;;;;;;2.55;100.00;93796.00;5090186;28;20035;-66
2023/11/04 06:14:54;;;;;;;4.38;4.07;;;;;;;2.58;100.00;93800.09;5089225;28;20020;-66
2023/11/04 06:17:19;;;;;;;3.90;3.45;;;;;;;2.61;100.00;93789.41;5085926;28;20115;-66
2023/11/04 06:19:45;;;;;;;2.85;2.65;;;;;;;2.76;100.00;93792.38;5087948;28;20027;-66
2023/11/04 06:22:11;;;;;;;3.70;3.40;;;;;;;3.00;100.00;93786.69;5093401;28;20602;-66
2023/11/04 06:24:40;;;;;;;4.30;3.90;;;;;;;2.79;100.00;93786.91;5090763;28;20115;-66
2023/11/04 06:27:06;;;;;;;5.38;4.72;;;;;;;2.73;100.00;93787.47;5094019;28;20032;-65
2023/11/04 06:29:31;;;;;;;5.40;4.93;;;;;;;2.67;100.00;93794.06;5091866;28;20030;-66
2023/11/04 06:31:56;;;;;;;6.05;5.53;;;;;;;2.66;100.00;93789.00;5082025;28;20092;-66
2023/11/04 06:34:22;;;;;;;4.32;3.60;;;;;;;2.72;100.00;93783.22;5081543;28;20024;-67
2023/11/04 06:36:47;;;;;;;2.90;2.63;;;;;;;2.82;100.00;93781.44;5080843;28;20056;-67
2023/11/04 06:39:13;;;;;;;3.60;2.55;;;;;;;2.80;100.00;93770.38;5085058;28;20048;-66
2023/11/04 06:41:40;;;;;;;7.70;7.10;;;;;;;2.82;100.00;93772.81;5086278;28;20039;-66
2023/11/04 06:44:06;;;;;;;10.70;9.68;;;;;;;2.85;100.00;93754.31;5093189;28;20036;-66
2023/11/04 06:46:31;;;;;;;11.63;10.43;;;;;;;2.87;100.00;93760.19;5094382;28;20066;-67
2023/11/04 06:48:57;;;;;;;7.68;6.95;;;;;;;2.92;100.00;93760.63;5091388;28;20051;-67
2023/11/04 06:51:22;;;;;;;8.02;7.22;;;;;;;3.01;100.00;93758.94;5083069;28;20182;-67
2023/11/04 06:53:49;;;;;;;11.32;10.23;;;;;;;2.94;100.00;93769.09;5086272;28;20035;-66
2023/11/04 06:56:14;;;;;;;6.00;5.60;;;;;;;2.96;100.00;93761.13;5085415;28;20122;-66
2023/11/04 06:58:40;;;;;;;5.15;4.53;;;;;;;3.19;100.00;93755.56;5085748;28;20075;-67
2023/11/04 07:01:05;;;;;;;3.42;2.80;;;;;;;3.24;100.00;93748.16;5091780;28;20027;-66
2023/11/04 07:03:31;;;;;;;2.78;2.60;;;;;;;3.12;100.00;93750.94;5080178;28;20032;-67
2023/11/04 07:05:57;;;;;;;6.03;5.53;;;;;;;3.12;100.00;93753.53;5092196;28;20039;-66
2023/11/04 07:08:22;;;;;;;6.05;5.55;;;;;;;3.14;100.00;93749.00;5094367;28;20035;-66
2023/11/04 07:10:48;;;;;;;6.25;4.57;;;;;;;3.13;100.00;93755.19;5089085;28;20072;-67
2023/11/04 07:13:14;;;;;;;9.90;8.93;;;;;;;3.20;100.00;93746.78;5086369;28;20750;-66
2023/11/04 07:15:44;;;;;;;24.65;22.48;;;;;;;3.19;100.00;93758.16;5082157;28;20024;-66
2023/11/04 07:18:14;;;;;;;11.82;10.75;;;;;;;3.17;100.00;93745.31;5095176;28;20028;-66
2023/11/04 07:20:40;;;;;;;5.88;5.47;;;;;;;3.25;100.00;93757.59;5091683;28;20033;-66
2023/11/04 07:23:10;;;;;;;7.00;6.40;;;;;;;3.28;100.00;93754.69;5086807;28;20032;-67
2023/11/04 07:25:36;;;;;;;5.63;5.10;;;;;;;3.24;100.00;93758.56;5087517;28;20094;-67
2023/11/04 07:28:02;;;;;;;7.38;6.78;;;;;;;3.29;100.00;93751.94;5093601;28;20027;-67
2023/11/04 07:30:27;;;;;;;15.45;14.05;;;;;;;3.21;100.00;93745.84;5087373;28;20062;-66
2023/11/04 07:32:53;;;;;;;11.50;10.40;;;;;;;3.23;100.00;93746.53;5090928;28;20032;-67
2023/11/04 07:35:18;;;;;;;8.75;7.35;;;;;;;3.33;100.00;93736.06;5090474;28;20024;-67
2023/11/04 07:37:44;;;;;;;11.80;6.93;;;;;;;3.31;100.00;93738.81;5090494;28;20028;-67
2023/11/04 07:40:09;;;;;;;16.50;11.90;;;;;;;3.29;100.00;93745.94;5089531;28;20488;-66
2023/11/04 07:42:36;;;;;;;11.73;10.68;;;;;;;3.30;100.00;93748.38;5093531;28;20027;-67
2023/11/04 07:45:01;;;;;;;4.68;4.38;;;;;;;3.28;100.00;93742.50;5084647;28;20035;-67
2023/11/04 07:47:28;;;;;;;6.45;5.95;;;;;;;3.32;100.00;93743.03;5084684;28;20032;-67
2023/11/04 07:49:53;;;;;;;8.98;8.07;;;;;;;3.39;100.00;93738.09;5084468;28;20615;-67
2023/11/04 07:52:19;;;;;;;6.03;5.63;;;;;;;3.61;100.00;93738.63;5085773;28;20074;-66
2023/11/04 07:54:44;;;;;;;5.20;4.80;;;;;;;3.61;100.00;93718.63;5091904;28;20066;-67
2023/11/04 07:57:10;;;;;;;15.85;14.32;;;;;;;3.51;100.00;93739.50;5088473;28;20028;-66
2023/11/04 07:59:36;;;;;;;7.70;7.00;;;;;;;3.49;100.00;93746.63;5085386;28;20035;-66
2023/11/04 08:02:02;;;;;;;7.35;6.07;;;;;;;3.50;100.00;93760.47;5088611;28;20036;-66
2023/11/04 08:04:28;;;;;;;7.82;7.00;;;;;;;3.52;100.00;93758.53;5095332;28;20040;-67
2023/11/04 08:06:53;;;;;;;6.63;6.07;;;;;;;3.55;100.00;93766.03;5090237;28;20554;-67
2023/11/04 08:09:19;;;;;;;6.57;6.03;;;;;;;3.69;100.00;93767.31;5090595;28;20059;-67
2023/11/04 08:11:44;;;;;;;4.10;3.20;;;;;;;3.64;100.00;93753.94;5088078;28;20027;-66
2023/11/04 08:14:09;;;;;;;6.95;6.20;;;;;;;3.57;100.00;93761.50;5090748;28;20024;-66
2023/11/04 08:16:35;;;;;;;12.95;11.48;;;;;;;3.62;100.00;93751.47;5084618;28;20025;-66
2023/11/04 08:19:00;;;;;;;8.20;7.40;;;;;;;3.65;100.00;93746.00;5079936;28;20020;-66
2023/11/04 08:21:29;;;;;;;6.82;6.22;;;;;;;3.68;100.00;93752.69;5086610;28;20059;-66
2023/11/04 08:23:59;;;;;;;16.33;14.30;;;;;;;3.86;100.00;93753.50;5084761;28;20066;-66
2023/11/04 08:26:25;;;;;;;4.80;4.40;;;;;;;3.89;100.00;93742.00;5086934;28;20513;-67
2023/11/04 08:28:51;;;;;;;7.90;5.30;;;;;;;3.91;100.00;93747.88;5085093;28;20027;-67
2023/11/04 08:31:20;;;;;;;7.75;7.13;;;;;;;3.94;100.00;93742.34;5088943;28;20088;-66
2023/11/04 08:33:48;;;;;;;7.75;7.00;;;;;;;3.97;100.00;93739.44;5084112;28;20012;-66
2023/11/04 08:36:14;;;;;;;7.80;7.10;;;;;;;4.01;100.00;93740.78;5084076;28;20360;-67
2023/11/04 08:38:39;;;;;;;6.07;5.50;;;;;;;4.14;100.00;93739.59;5083285;28;20960;-66
2023/11/04 08:41:05;;;;;;;14.00;6.82;;;;;;;4.17;100.00;93731.47;5086277;28;20052;-66
2023/11/04 08:43:31;;;;;;;4.90;4.50;;;;;;;4.33;100.00;93732.56;5079160;28;20028;-66
2023/11/04 08:45:56;;;;;;;4.15;3.85;;;;;;;4.43;100.00;93717.66;5082593;28;20017;-67
2023/11/04 08:48:21;;;;;;;4.20;3.80;;;;;;;4.32;100.00;93720.53;5084935;28;20095;-66
2023/11/04 08:50:47;;;;;;;4.10;3.78;;;;;;;4.30;100.00;93713.66;5083132;28;20016;-67
2023/11/04 08:53:13;;;;;;;6.05;5.45;;;;;;;4.48;100.00;93694.56;5083387;28;20611;-67
2023/11/04 08:55:38;;;;;;;7.93;6.25;;;;;;;4.37;100.00;93702.63;5077054;28;20020;-67
2023/11/04 08:58:04;;;;;;;7.22;6.30;;;;;;;4.28;100.00;93715.59;5080609;28;20025;-67
2023/11/04 09:00:29;;;;;;;10.32;6.30;;;;;;;4.34;100.00;93713.38;5084338;28;20107;-67
2023/11/04 09:02:55;;;;;;;6.65;5.40;;;;;;;4.21;100.00;93709.38;5081453;28;20135;-67
2023/11/04 09:05:21;;;;;;;14.57;13.10;;;;;;;4.12;100.00;93711.09;5076701;28;20542;-67
2023/11/04 09:07:47;;;;;;;6.50;5.90;;;;;;;4.22;100.00;93725.81;5083158;28;20223;-67
2023/11/04 09:10:12;;;;;;;5.32;4.70;;;;;;;4.34;100.00;93735.00;5081980;28;20087;-66
2023/11/04 09:12:38;;;;;;;5.00;4.50;;;;;;;4.26;100.00;93735.75;5080101;28;20020;-67
2023/11/04 09:15:05;;;;;;;11.13;10.13;;;;;;;4.23;100.00;93730.06;5075764;28;20095;-67
2023/11/04 09:17:30;;;;;;;7.28;6.53;;;;;;;4.18;100.00;93733.13;5085573;28;20023;-67
2023/11/04 09:19:57;;;;;;;6.78;6.13;;;;;;;4.23;100.00;93732.66;5083351;28;20024;-66
2023/11/04 09:22:22;;;;;;;7.25;5.25;;;;;;;4.26;100.00;93727.16;5064403;28;20020;-67
2023/11/04 09:24:47;;;;;;;4.63;4.20;;;;;;;4.50;100.00;93726.47;5073515;28;20025;-66
2023/11/04 09:27:13;;;;;;;5.05;4.65;;;;;;;4.47;100.00;93716.38;5081196;28;20026;-66
2023/11/04 09:29:38;;;;;;;7.35;6.75;;;;;;;4.47;100.00;93718.97;5079004;28;20031;-66
2023/11/04 09:32:04;;;;;;;8.55;6.25;;;;;;;4.49;100.00;93718.84;5084653;28;20476;-67
2023/11/04 09:34:30;;;;;;;7.20;6.55;;;;;;;4.53;100.00;93702.75;5081632;28;20026;-66
2023/11/04 09:36:55;;;;;;;14.15;12.85;;;;;;;4.50;100.00;93707.44;5082272;28;20099;-66
2023/11/04 09:39:20;;;;;;;12.75;11.57;;;;;;;4.47;100.00;93718.97;5083991;28;20482;-66
2023/11/04 09:41:46;;;;;;;9.27;8.48;;;;;;;4.57;100.00;93719.72;5082441;28;20020;-67
2023/11/04 09:44:11;;;;;;;7.25;6.53;;;;;;;4.68;100.00;93721.25;5085790;28;20024;-66
2023/11/04 09:46:37;;;;;;;9.75;5.85;;;;;;;4.91;100.00;93715.50;5080734;28;20048;-67
2023/11/04 09:49:03;;;;;;;6.78;6.07;;;;;;;4.78;100.00;93735.94;5082569;28;20666;-67
2023/11/04 09:51:29;;;;;;;7.93;7.13;;;;;;;4.74;100.00;93735.41;5088681;28;20013;-67
2023/11/04 09:53:58;;;;;;;9.00;8.20;;;;;;;4.74;100.00;93722.38;5081899;28;20016;-67
2023/11/04 09:56:24;;;;;;;11.27;9.68;;;;;;;4.86;100.00;93731.59;5084000;28;20020;-67
2023/11/04 09:58:50;;;;;;;8.20;7.10;;;;;;;4.82;100.00;93727.66;5089139;28;20027;-67
2023/11/04 10:01:18;;;;;;;9.02;7.65;;;;;;;4.77;100.00;93727.31;5086515;28;21133;-67
2023/11/04 10:03:47;;;;;;;9.55;8.70;;;;;;;4.79;100.00;93708.91;5080473;28;20032;-67
2023/11/04 10:06:13;;;;;;;8.27;7.35;;;;;;;4.85;100.00;93700.44;5086950;28;20028;-67
2023/11/04 10:08:39;;;;;;;10.40;9.05;;;;;;;4.85;100.00;93683.03;5083055;28;20111;-66
2023/11/04 10:11:05;;;;;;;9.27;8.15;;;;;;;4.87;100.00;93682.88;5047017;28;1172449;-66
2023/11/04 10:13:31;;;;;;;10.52;9.55;;;;;;;4.90;100.00;93679.97;5090719;28;20024;-67
2023/11/04 10:15:57;;;;;;;8.77;7.95;;;;;;;5.04;100.00;93670.72;5090004;28;20021;-66
2023/11/04 10:18:24;;;;;;;16.38;14.85;;;;;;;5.15;100.00;93669.59;5094124;28;20028;-68
2023/11/04 10:20:50;;;;;;;8.82;7.93;;;;;;;5.13;100.00;93667.16;5070940;28;20024;-67
2023/11/04 10:23:16;;;;;;;8.07;7.28;;;;;;;5.19;100.00;93663.09;5088345;28;20579;-67
2023/11/04 10:25:41;;;;;;;7.65;7.00;;;;;;;5.12;100.00;93655.09;5084274;28;20105;-66
2023/11/04 10:28:08;;;;;;;6.85;6.25;;;;;;;5.21;100.00;93668.16;5087928;28;20455;-68
2023/11/04 10:30:37;;;;;;;7.50;6.72;;;;;;;5.26;100.00;93656.25;5082872;28;20840;-67
2023/11/04 10:33:07;;;;;;;7.85;7.05;;;;;;;5.21;100.00;93662.94;5062956;28;20028;-66
2023/11/04 10:35:34;;;;;;;10.60;9.88;;;;;;;5.19;100.00;93649.22;5081210;28;20525;-67
2023/11/04 10:38:05;;;;;;;7.53;6.88;;;;;;;5.10;100.00;93657.03;5082242;28;20054;-66
2023/11/04 10:40:31;;;;;;;7.55;6.85;;;;;;;5.20;100.00;93656.09;5084655;28;20564;-66
2023/11/04 10:43:04;;;;;;;10.05;9.35;;;;;;;5.23;100.00;93656.56;5087381;28;20025;-65
2023/11/04 10:45:41;;;;;;;7.95;7.35;;;;;;;5.33;100.00;93639.97;5084831;28;20016;-66
2023/11/04 10:48:23;;;;;;;11.90;10.98;;;;;;;5.30;100.00;93648.94;5092438;28;20024;-66
2023/11/04 10:50:59;;;;;;;8.30;7.57;;;;;;;5.27;100.00;93641.44;5081384;28;20020;-65
2023/11/04 10:53:39;;;;;;;9.80;9.02;;;;;;;5.48;100.00;93648.00;5079205;28;20510;-65
2023/11/04 10:56:18;;;;;;;6.15;5.70;;;;;;;5.52;100.00;93629.22;5086540;28;20073;-65
2023/11/04 10:58:53;;;;;;;6.07;5.57;;;;;;;5.64;100.00;93615.88;5089028;28;20043;-65
2023/11/04 11:01:20;;;;;;;5.18;4.57;;;;;;;5.81;100.00;93619.28;5085762;28;20017;-65
2023/11/04 11:03:49;;;;;;;5.82;5.38;;;;;;;5.88;100.00;93594.97;5081483;28;20343;-67
2023/11/04 11:06:15;;;;;;;7.97;6.00;;;;;;;5.96;100.00;93588.09;5083449;28;20035;-65
2023/11/04 11:08:43;;;;;;;7.60;6.90;;;;;;;6.12;100.00;93571.63;5078347;28;20042;-65
2023/11/04 11:11:14;;;;;;;7.35;6.75;;;;;;;6.24;100.00;93554.59;5082558;28;20048;-65
2023/11/04 11:13:41;;;;;;;12.25;11.15;;;;;;;6.14;100.00;93561.81;5082547;28;20034;-66
2023/11/04 11:16:07;;;;;;;13.93;12.70;;;;;;;6.08;100.00;93541.56;5082104;28;20051;-66
2023/11/04 11:18:32;;;;;;;10.35;9.30;;;;;;;6.16;100.00;93538.97;5081092;28;20085;-66
2023/11/04 11:21:09;;;;;;;12.98;11.77;;;;;;;6.15;100.00;93547.78;5086475;28;20023;-67